Omidiyeh, Iran
Current Conditions -  °F | °C
As of 11:00 PM on Tuesday 21 Oct 2014 (Local Time) from OIAG Reporting Station
Clear Clear  
Wind Chill: 19°   Ceiling: Unl
Heat Index: 19°   Visibility: 6mi
Dew Point: 14°   Wind: 7mph
Humidity: 73%   Direction: 320°NW
Pressure: 30.06"   Gusts: NA
Location:  30.75°N, 49.71°E
Report Text: OIAG 212000Z 32006KT CAVOK 19/14 Q1018
Loading
Personal Weather Stations






























Interactive Weather Map
Tropical Storm Tracking
New forecast layout! Learn more

10-Day Weather Forecast

Advertisements
Track Severe Weather on mobile